sensor_id;sensor_type;location;lat;lon;timestamp;P1;durP1;ratioP1;P2;durP2;ratioP2
417;SDS011;49;48.530;9.200;2023-04-09T00:02:10;22.30;;;17.40;;
417;SDS011;49;48.530;9.200;2023-04-09T00:04:54;21.73;;;16.50;;
417;SDS011;49;48.530;9.200;2023-04-09T00:07:31;23.30;;;16.50;;
417;SDS011;49;48.530;9.200;2023-04-09T00:10:05;20.90;;;16.13;;
417;SDS011;49;48.530;9.200;2023-04-09T00:12:37;28.83;;;18.00;;
417;SDS011;49;48.530;9.200;2023-04-09T00:15:10;26.20;;;19.03;;
417;SDS011;49;48.530;9.200;2023-04-09T00:17:51;23.93;;;17.37;;
417;SDS011;49;48.530;9.200;2023-04-09T00:20:49;23.47;;;16.77;;
417;SDS011;49;48.530;9.200;2023-04-09T00:23:26;19.53;;;16.07;;
417;SDS011;49;48.530;9.200;2023-04-09T00:25:53;23.63;;;16.87;;
417;SDS011;49;48.530;9.200;2023-04-09T00:31:14;22.20;;;17.17;;
417;SDS011;49;48.530;9.200;2023-04-09T00:33:55;23.17;;;17.67;;
417;SDS011;49;48.530;9.200;2023-04-09T00:36:34;22.53;;;16.77;;
417;SDS011;49;48.530;9.200;2023-04-09T00:39:02;22.37;;;17.40;;
417;SDS011;49;48.530;9.200;2023-04-09T00:41:31;22.57;;;17.20;;
417;SDS011;49;48.530;9.200;2023-04-09T00:44:10;24.40;;;16.77;;
417;SDS011;49;48.530;9.200;2023-04-09T00:49:32;22.93;;;17.47;;
417;SDS011;49;48.530;9.200;2023-04-09T00:52:05;22.53;;;17.50;;
417;SDS011;49;48.530;9.200;2023-04-09T00:54:40;26.23;;;18.83;;
417;SDS011;49;48.530;9.200;2023-04-09T00:57:13;23.43;;;17.20;;
417;SDS011;49;48.530;9.200;2023-04-09T00:59:45;28.03;;;18.37;;
417;SDS011;49;48.530;9.200;2023-04-09T01:02:12;22.93;;;17.30;;
417;SDS011;49;48.530;9.200;2023-04-09T01:04:45;26.87;;;18.70;;
417;SDS011;49;48.530;9.200;2023-04-09T01:10:33;24.80;;;18.77;;
417;SDS011;49;48.530;9.200;2023-04-09T01:13:07;30.10;;;18.07;;
417;SDS011;49;48.530;9.200;2023-04-09T01:15:48;25.27;;;18.63;;
417;SDS011;49;48.530;9.200;2023-04-09T01:18:21;27.83;;;17.70;;
417;SDS011;49;48.530;9.200;2023-04-09T01:21:02;24.30;;;17.20;;
417;SDS011;49;48.530;9.200;2023-04-09T01:23:43;26.50;;;17.37;;
417;SDS011;49;48.530;9.200;2023-04-09T01:26:16;24.83;;;17.13;;
417;SDS011;49;48.530;9.200;2023-04-09T01:29:06;25.60;;;17.70;;
417;SDS011;49;48.530;9.200;2023-04-09T01:31:34;24.87;;;18.13;;
417;SDS011;49;48.530;9.200;2023-04-09T01:34:09;24.53;;;18.57;;
417;SDS011;49;48.530;9.200;2023-04-09T01:36:44;22.27;;;16.43;;
417;SDS011;49;48.530;9.200;2023-04-09T01:39:19;25.67;;;16.90;;
417;SDS011;49;48.530;9.200;2023-04-09T01:41:47;24.20;;;17.10;;
417;SDS011;49;48.530;9.200;2023-04-09T01:44:19;23.93;;;18.70;;
417;SDS011;49;48.530;9.200;2023-04-09T01:46:56;25.20;;;18.20;;
417;SDS011;49;48.530;9.200;2023-04-09T01:49:27;22.00;;;16.40;;
417;SDS011;49;48.530;9.200;2023-04-09T01:51:57;25.57;;;19.20;;
417;SDS011;49;48.530;9.200;2023-04-09T01:54:24;25.87;;;17.70;;
417;SDS011;49;48.530;9.200;2023-04-09T01:56:55;25.40;;;18.57;;
417;SDS011;49;48.530;9.200;2023-04-09T01:59:24;25.83;;;17.70;;
417;SDS011;49;48.530;9.200;2023-04-09T02:01:53;24.83;;;17.50;;
417;SDS011;49;48.530;9.200;2023-04-09T02:04:25;25.93;;;18.97;;
417;SDS011;49;48.530;9.200;2023-04-09T02:07:02;26.97;;;19.13;;
417;SDS011;49;48.530;9.200;2023-04-09T02:09:36;22.23;;;17.53;;
417;SDS011;49;48.530;9.200;2023-04-09T02:12:06;25.40;;;18.90;;
417;SDS011;49;48.530;9.200;2023-04-09T02:14:39;26.43;;;18.73;;
417;SDS011;49;48.530;9.200;2023-04-09T02:17:09;24.90;;;18.10;;
417;SDS011;49;48.530;9.200;2023-04-09T02:19:40;27.90;;;18.53;;
417;SDS011;49;48.530;9.200;2023-04-09T02:22:12;27.50;;;19.33;;
417;SDS011;49;48.530;9.200;2023-04-09T02:24:40;25.87;;;19.30;;
417;SDS011;49;48.530;9.200;2023-04-09T02:27:07;25.30;;;18.90;;
417;SDS011;49;48.530;9.200;2023-04-09T02:29:39;26.50;;;18.63;;
417;SDS011;49;48.530;9.200;2023-04-09T02:32:09;23.20;;;17.17;;
417;SDS011;49;48.530;9.200;2023-04-09T02:34:51;26.43;;;18.37;;
417;SDS011;49;48.530;9.200;2023-04-09T02:37:25;24.87;;;18.00;;
417;SDS011;49;48.530;9.200;2023-04-09T02:40:08;23.17;;;16.17;;
417;SDS011;49;48.530;9.200;2023-04-09T02:42:52;25.50;;;18.40;;
417;SDS011;49;48.530;9.200;2023-04-09T02:45:23;22.17;;;17.17;;
417;SDS011;49;48.530;9.200;2023-04-09T02:47:57;21.47;;;17.37;;
417;SDS011;49;48.530;9.200;2023-04-09T02:50:29;26.13;;;17.87;;
417;SDS011;49;48.530;9.200;2023-04-09T02:53:02;20.80;;;16.80;;
417;SDS011;49;48.530;9.200;2023-04-09T02:55:36;23.77;;;17.87;;
417;SDS011;49;48.530;9.200;2023-04-09T02:58:13;23.50;;;17.87;;
417;SDS011;49;48.530;9.200;2023-04-09T03:00:52;29.50;;;19.70;;
417;SDS011;49;48.530;9.200;2023-04-09T03:03:22;33.50;;;19.43;;
417;SDS011;49;48.530;9.200;2023-04-09T03:05:54;29.37;;;20.43;;
417;SDS011;49;48.530;9.200;2023-04-09T03:08:22;26.50;;;19.23;;
417;SDS011;49;48.530;9.200;2023-04-09T03:10:53;25.47;;;18.47;;
417;SDS011;49;48.530;9.200;2023-04-09T03:13:24;27.40;;;19.40;;
417;SDS011;49;48.530;9.200;2023-04-09T03:15:57;28.63;;;19.93;;
417;SDS011;49;48.530;9.200;2023-04-09T03:18:27;24.70;;;19.80;;
417;SDS011;49;48.530;9.200;2023-04-09T03:20:59;28.77;;;19.20;;
417;SDS011;49;48.530;9.200;2023-04-09T03:23:30;25.90;;;19.47;;
417;SDS011;49;48.530;9.200;2023-04-09T03:26:00;31.53;;;18.37;;
417;SDS011;49;48.530;9.200;2023-04-09T03:28:33;25.33;;;20.13;;
417;SDS011;49;48.530;9.200;2023-04-09T03:31:10;27.17;;;18.47;;
417;SDS011;49;48.530;9.200;2023-04-09T03:33:40;23.53;;;17.70;;
417;SDS011;49;48.530;9.200;2023-04-09T03:36:20;23.00;;;18.20;;
417;SDS011;49;48.530;9.200;2023-04-09T03:38:48;25.53;;;18.03;;
417;SDS011;49;48.530;9.200;2023-04-09T03:41:21;23.17;;;17.60;;
417;SDS011;49;48.530;9.200;2023-04-09T03:43:52;26.07;;;17.17;;
417;SDS011;49;48.530;9.200;2023-04-09T03:46:23;45.17;;;26.30;;
417;SDS011;49;48.530;9.200;2023-04-09T03:49:03;166.83;;;75.90;;
417;SDS011;49;48.530;9.200;2023-04-09T03:52:02;59.53;;;30.10;;
417;SDS011;49;48.530;9.200;2023-04-09T03:54:44;36.03;;;21.77;;
417;SDS011;49;48.530;9.200;2023-04-09T03:57:22;27.53;;;18.97;;
417;SDS011;49;48.530;9.200;2023-04-09T03:59:51;28.93;;;18.60;;
417;SDS011;49;48.530;9.200;2023-04-09T04:02:20;26.03;;;18.77;;
417;SDS011;49;48.530;9.200;2023-04-09T04:05:01;26.53;;;19.37;;
417;SDS011;49;48.530;9.200;2023-04-09T04:07:28;25.20;;;17.17;;
417;SDS011;49;48.530;9.200;2023-04-09T04:09:58;26.17;;;17.73;;
417;SDS011;49;48.530;9.200;2023-04-09T04:12:27;24.73;;;17.73;;
417;SDS011;49;48.530;9.200;2023-04-09T04:14:59;23.00;;;18.00;;
417;SDS011;49;48.530;9.200;2023-04-09T04:17:36;25.00;;;18.43;;
417;SDS011;49;48.530;9.200;2023-04-09T04:20:06;26.13;;;17.70;;
417;SDS011;49;48.530;9.200;2023-04-09T04:22:39;29.63;;;19.83;;
417;SDS011;49;48.530;9.200;2023-04-09T04:25:21;23.70;;;18.67;;
417;SDS011;49;48.530;9.200;2023-04-09T04:27:49;25.30;;;19.00;;
417;SDS011;49;48.530;9.200;2023-04-09T04:30:21;24.53;;;18.70;;
417;SDS011;49;48.530;9.200;2023-04-09T04:33:01;23.53;;;18.43;;
417;SDS011;49;48.530;9.200;2023-04-09T04:35:28;29.60;;;18.00;;
417;SDS011;49;48.530;9.200;2023-04-09T04:38:01;23.43;;;17.10;;
417;SDS011;49;48.530;9.200;2023-04-09T04:40:28;23.87;;;17.53;;
417;SDS011;49;48.530;9.200;2023-04-09T04:43:11;22.33;;;17.30;;
417;SDS011;49;48.530;9.200;2023-04-09T04:45:51;20.13;;;16.33;;
417;SDS011;49;48.530;9.200;2023-04-09T04:48:23;25.30;;;18.33;;
417;SDS011;49;48.530;9.200;2023-04-09T04:50:56;29.57;;;19.20;;
417;SDS011;49;48.530;9.200;2023-04-09T04:53:27;24.13;;;18.27;;
417;SDS011;49;48.530;9.200;2023-04-09T04:55:57;27.17;;;18.33;;
417;SDS011;49;48.530;9.200;2023-04-09T04:58:25;25.70;;;17.60;;
417;SDS011;49;48.530;9.200;2023-04-09T05:01:05;24.50;;;17.97;;
417;SDS011;49;48.530;9.200;2023-04-09T05:03:39;20.97;;;16.33;;
417;SDS011;49;48.530;9.200;2023-04-09T05:06:17;23.40;;;16.33;;
417;SDS011;49;48.530;9.200;2023-04-09T05:08:59;22.60;;;16.13;;
417;SDS011;49;48.530;9.200;2023-04-09T05:11:27;22.90;;;16.93;;
417;SDS011;49;48.530;9.200;2023-04-09T05:14:01;22.47;;;18.27;;
417;SDS011;49;48.530;9.200;2023-04-09T05:16:47;24.23;;;18.37;;
417;SDS011;49;48.530;9.200;2023-04-09T05:19:26;23.60;;;18.40;;
417;SDS011;49;48.530;9.200;2023-04-09T05:22:02;26.10;;;18.13;;
417;SDS011;49;48.530;9.200;2023-04-09T05:24:39;23.23;;;19.03;;
417;SDS011;49;48.530;9.200;2023-04-09T05:27:09;23.90;;;18.40;;
417;SDS011;49;48.530;9.200;2023-04-09T05:30:05;24.90;;;18.97;;
417;SDS011;49;48.530;9.200;2023-04-09T05:32:42;26.60;;;20.17;;
417;SDS011;49;48.530;9.200;2023-04-09T05:35:18;24.40;;;19.17;;
417;SDS011;49;48.530;9.200;2023-04-09T05:37:51;26.47;;;19.80;;
417;SDS011;49;48.530;9.200;2023-04-09T05:40:24;26.40;;;19.23;;
417;SDS011;49;48.530;9.200;2023-04-09T05:42:53;24.70;;;17.30;;
417;SDS011;49;48.530;9.200;2023-04-09T05:45:30;19.60;;;13.73;;
417;SDS011;49;48.530;9.200;2023-04-09T05:48:07;21.07;;;13.70;;
417;SDS011;49;48.530;9.200;2023-04-09T05:50:58;17.40;;;13.53;;
417;SDS011;49;48.530;9.200;2023-04-09T05:53:47;19.77;;;14.23;;
417;SDS011;49;48.530;9.200;2023-04-09T05:56:48;18.43;;;12.90;;
417;SDS011;49;48.530;9.200;2023-04-09T05:59:38;16.23;;;12.10;;
417;SDS011;49;48.530;9.200;2023-04-09T06:02:27;15.20;;;11.33;;
417;SDS011;49;48.530;9.200;2023-04-09T06:05:08;16.77;;;11.70;;
417;SDS011;49;48.530;9.200;2023-04-09T06:07:46;19.17;;;12.10;;
417;SDS011;49;48.530;9.200;2023-04-09T06:10:26;15.87;;;12.10;;
417;SDS011;49;48.530;9.200;2023-04-09T06:12:55;16.83;;;12.10;;
417;SDS011;49;48.530;9.200;2023-04-09T06:15:33;14.23;;;11.40;;
417;SDS011;49;48.530;9.200;2023-04-09T06:18:16;15.70;;;11.43;;
417;SDS011;49;48.530;9.200;2023-04-09T06:21:15;17.13;;;11.70;;
417;SDS011;49;48.530;9.200;2023-04-09T06:24:22;15.67;;;11.70;;
417;SDS011;49;48.530;9.200;2023-04-09T06:26:54;15.73;;;11.53;;
417;SDS011;49;48.530;9.200;2023-04-09T06:29:24;16.37;;;12.13;;
417;SDS011;49;48.530;9.200;2023-04-09T06:31:54;14.27;;;11.37;;
417;SDS011;49;48.530;9.200;2023-04-09T06:34:27;16.13;;;11.13;;
417;SDS011;49;48.530;9.200;2023-04-09T06:36:57;17.83;;;12.30;;
417;SDS011;49;48.530;9.200;2023-04-09T06:39:31;15.90;;;11.43;;
417;SDS011;49;48.530;9.200;2023-04-09T06:42:03;13.57;;;11.43;;
417;SDS011;49;48.530;9.200;2023-04-09T06:44:33;15.13;;;11.63;;
417;SDS011;49;48.530;9.200;2023-04-09T06:47:13;17.53;;;12.23;;
417;SDS011;49;48.530;9.200;2023-04-09T06:49:40;14.53;;;11.77;;
417;SDS011;49;48.530;9.200;2023-04-09T06:52:09;15.37;;;11.53;;
417;SDS011;49;48.530;9.200;2023-04-09T06:54:41;18.50;;;13.33;;
417;SDS011;49;48.530;9.200;2023-04-09T06:57:11;18.83;;;14.07;;
417;SDS011;49;48.530;9.200;2023-04-09T06:59:47;16.53;;;12.83;;
417;SDS011;49;48.530;9.200;2023-04-09T07:02:30;14.13;;;11.93;;
417;SDS011;49;48.530;9.200;2023-04-09T07:05:03;17.73;;;11.70;;
417;SDS011;49;48.530;9.200;2023-04-09T07:07:37;15.23;;;12.20;;
417;SDS011;49;48.530;9.200;2023-04-09T07:10:14;56.20;;;27.60;;
417;SDS011;49;48.530;9.200;2023-04-09T07:12:50;20.97;;;14.27;;
417;SDS011;49;48.530;9.200;2023-04-09T07:15:20;23.90;;;16.27;;
417;SDS011;49;48.530;9.200;2023-04-09T07:17:51;16.27;;;13.00;;
417;SDS011;49;48.530;9.200;2023-04-09T07:20:22;17.33;;;14.40;;
417;SDS011;49;48.530;9.200;2023-04-09T07:22:51;13.20;;;11.13;;
417;SDS011;49;48.530;9.200;2023-04-09T07:25:23;14.80;;;11.83;;
417;SDS011;49;48.530;9.200;2023-04-09T07:27:52;14.87;;;11.70;;
417;SDS011;49;48.530;9.200;2023-04-09T07:30:22;18.00;;;14.23;;
417;SDS011;49;48.530;9.200;2023-04-09T07:33:14;16.50;;;12.27;;
417;SDS011;49;48.530;9.200;2023-04-09T07:35:51;15.87;;;12.43;;
417;SDS011;49;48.530;9.200;2023-04-09T07:38:29;15.43;;;11.10;;
417;SDS011;49;48.530;9.200;2023-04-09T07:41:26;14.10;;;11.20;;
417;SDS011;49;48.530;9.200;2023-04-09T07:43:55;23.37;;;15.63;;
417;SDS011;49;48.530;9.200;2023-04-09T07:46:34;17.47;;;12.43;;
417;SDS011;49;48.530;9.200;2023-04-09T07:49:12;20.57;;;14.47;;
417;SDS011;49;48.530;9.200;2023-04-09T07:51:46;17.90;;;14.00;;
417;SDS011;49;48.530;9.200;2023-04-09T07:54:21;22.87;;;15.87;;
417;SDS011;49;48.530;9.200;2023-04-09T07:56:52;15.47;;;12.37;;
417;SDS011;49;48.530;9.200;2023-04-09T07:59:34;13.30;;;10.93;;
417;SDS011;49;48.530;9.200;2023-04-09T08:02:19;14.77;;;10.67;;
417;SDS011;49;48.530;9.200;2023-04-09T08:04:55;17.33;;;10.60;;
417;SDS011;49;48.530;9.200;2023-04-09T08:07:32;16.17;;;12.80;;
417;SDS011;49;48.530;9.200;2023-04-09T08:10:04;16.90;;;12.93;;
417;SDS011;49;48.530;9.200;2023-04-09T08:12:43;13.87;;;10.53;;
417;SDS011;49;48.530;9.200;2023-04-09T08:15:23;16.33;;;12.60;;
417;SDS011;49;48.530;9.200;2023-04-09T08:17:58;19.77;;;13.40;;
417;SDS011;49;48.530;9.200;2023-04-09T08:20:38;13.90;;;11.07;;
417;SDS011;49;48.530;9.200;2023-04-09T08:23:09;21.13;;;11.80;;
417;SDS011;49;48.530;9.200;2023-04-09T08:25:43;16.43;;;12.30;;
417;SDS011;49;48.530;9.200;2023-04-09T08:28:16;39.20;;;21.70;;
417;SDS011;49;48.530;9.200;2023-04-09T08:33:33;20.80;;;13.77;;
417;SDS011;49;48.530;9.200;2023-04-09T08:36:02;16.07;;;12.70;;
417;SDS011;49;48.530;9.200;2023-04-09T08:38:44;15.80;;;12.33;;
417;SDS011;49;48.530;9.200;2023-04-09T08:41:25;14.23;;;10.83;;
417;SDS011;49;48.530;9.200;2023-04-09T08:44:06;10.43;;;8.10;;
417;SDS011;49;48.530;9.200;2023-04-09T08:49:46;7.93;;;7.10;;
417;SDS011;49;48.530;9.200;2023-04-09T08:52:15;10.00;;;6.40;;
417;SDS011;49;48.530;9.200;2023-04-09T08:57:52;9.67;;;7.60;;
417;SDS011;49;48.530;9.200;2023-04-09T09:00:27;10.87;;;7.30;;
417;SDS011;49;48.530;9.200;2023-04-09T09:03:02;8.17;;;6.90;;
417;SDS011;49;48.530;9.200;2023-04-09T09:05:37;7.30;;;6.40;;
417;SDS011;49;48.530;9.200;2023-04-09T09:08:10;8.30;;;7.07;;
417;SDS011;49;48.530;9.200;2023-04-09T09:10:44;7.10;;;6.30;;
417;SDS011;49;48.530;9.200;2023-04-09T09:13:15;7.67;;;6.77;;
417;SDS011;49;48.530;9.200;2023-04-09T09:15:53;8.03;;;6.50;;
417;SDS011;49;48.530;9.200;2023-04-09T09:18:40;8.90;;;6.50;;
417;SDS011;49;48.530;9.200;2023-04-09T09:21:10;6.30;;;5.87;;
417;SDS011;49;48.530;9.200;2023-04-09T09:23:40;10.07;;;7.87;;
417;SDS011;49;48.530;9.200;2023-04-09T09:26:13;8.60;;;7.73;;
417;SDS011;49;48.530;9.200;2023-04-09T09:28:45;7.00;;;6.27;;
417;SDS011;49;48.530;9.200;2023-04-09T09:31:15;8.33;;;7.23;;
417;SDS011;49;48.530;9.200;2023-04-09T09:33:43;8.77;;;6.97;;
417;SDS011;49;48.530;9.200;2023-04-09T09:36:12;8.50;;;7.47;;
417;SDS011;49;48.530;9.200;2023-04-09T09:38:53;8.73;;;7.70;;
417;SDS011;49;48.530;9.200;2023-04-09T09:41:34;9.13;;;7.70;;
417;SDS011;49;48.530;9.200;2023-04-09T09:44:02;9.57;;;8.10;;
417;SDS011;49;48.530;9.200;2023-04-09T09:46:34;9.97;;;8.57;;
417;SDS011;49;48.530;9.200;2023-04-09T09:49:02;10.67;;;8.80;;
417;SDS011;49;48.530;9.200;2023-04-09T09:51:30;10.33;;;8.60;;
417;SDS011;49;48.530;9.200;2023-04-09T09:53:58;10.47;;;8.90;;
417;SDS011;49;48.530;9.200;2023-04-09T09:56:28;14.20;;;9.13;;
417;SDS011;49;48.530;9.200;2023-04-09T09:59:01;12.13;;;9.20;;
417;SDS011;49;48.530;9.200;2023-04-09T10:01:39;12.50;;;9.57;;
417;SDS011;49;48.530;9.200;2023-04-09T10:04:07;14.53;;;10.97;;
417;SDS011;49;48.530;9.200;2023-04-09T10:06:39;12.77;;;10.07;;
417;SDS011;49;48.530;9.200;2023-04-09T10:09:11;10.50;;;9.77;;
417;SDS011;49;48.530;9.200;2023-04-09T10:11:38;11.53;;;9.60;;
417;SDS011;49;48.530;9.200;2023-04-09T10:14:08;11.50;;;10.07;;
417;SDS011;49;48.530;9.200;2023-04-09T10:16:39;12.37;;;9.90;;
417;SDS011;49;48.530;9.200;2023-04-09T10:19:07;12.80;;;10.60;;
417;SDS011;49;48.530;9.200;2023-04-09T10:21:39;12.60;;;9.37;;
417;SDS011;49;48.530;9.200;2023-04-09T10:24:11;13.60;;;10.40;;
417;SDS011;49;48.530;9.200;2023-04-09T10:26:40;10.70;;;9.00;;
417;SDS011;49;48.530;9.200;2023-04-09T10:29:13;11.73;;;9.53;;
417;SDS011;49;48.530;9.200;2023-04-09T10:31:49;13.00;;;9.90;;
417;SDS011;49;48.530;9.200;2023-04-09T10:34:19;10.40;;;8.43;;
417;SDS011;49;48.530;9.200;2023-04-09T10:36:54;13.57;;;9.60;;
417;SDS011;49;48.530;9.200;2023-04-09T10:39:38;9.53;;;7.33;;
417;SDS011;49;48.530;9.200;2023-04-09T10:42:14;10.77;;;8.67;;
417;SDS011;49;48.530;9.200;2023-04-09T10:45:02;9.40;;;8.17;;
417;SDS011;49;48.530;9.200;2023-04-09T10:47:37;11.10;;;8.70;;
417;SDS011;49;48.530;9.200;2023-04-09T10:50:16;12.00;;;8.40;;
417;SDS011;49;48.530;9.200;2023-04-09T10:52:44;9.27;;;8.10;;
417;SDS011;49;48.530;9.200;2023-04-09T10:55:29;9.57;;;8.43;;
417;SDS011;49;48.530;9.200;2023-04-09T10:58:03;8.80;;;7.37;;
417;SDS011;49;48.530;9.200;2023-04-09T11:00:36;8.90;;;7.53;;
417;SDS011;49;48.530;9.200;2023-04-09T11:03:20;9.57;;;7.80;;
417;SDS011;49;48.530;9.200;2023-04-09T11:05:57;9.57;;;6.83;;
417;SDS011;49;48.530;9.200;2023-04-09T11:08:27;9.70;;;8.00;;
417;SDS011;49;48.530;9.200;2023-04-09T11:10:56;9.97;;;7.73;;
417;SDS011;49;48.530;9.200;2023-04-09T11:13:25;8.90;;;7.20;;
417;SDS011;49;48.530;9.200;2023-04-09T11:16:07;8.10;;;6.77;;
417;SDS011;49;48.530;9.200;2023-04-09T11:18:37;8.20;;;6.97;;
417;SDS011;49;48.530;9.200;2023-04-09T11:21:05;9.80;;;7.80;;
417;SDS011;49;48.530;9.200;2023-04-09T11:23:37;9.33;;;6.77;;
417;SDS011;49;48.530;9.200;2023-04-09T11:26:05;8.20;;;6.57;;
417;SDS011;49;48.530;9.200;2023-04-09T11:28:35;6.40;;;6.07;;
417;SDS011;49;48.530;9.200;2023-04-09T11:31:06;7.70;;;6.63;;
417;SDS011;49;48.530;9.200;2023-04-09T11:33:33;9.50;;;7.23;;
417;SDS011;49;48.530;9.200;2023-04-09T11:36:03;9.63;;;7.17;;
417;SDS011;49;48.530;9.200;2023-04-09T11:38:40;11.27;;;7.20;;
417;SDS011;49;48.530;9.200;2023-04-09T11:41:37;10.27;;;7.93;;
417;SDS011;49;48.530;9.200;2023-04-09T11:44:05;7.00;;;6.33;;
417;SDS011;49;48.530;9.200;2023-04-09T11:46:48;8.67;;;7.23;;
417;SDS011;49;48.530;9.200;2023-04-09T11:49:16;7.43;;;6.60;;
417;SDS011;49;48.530;9.200;2023-04-09T11:51:48;7.70;;;6.60;;
417;SDS011;49;48.530;9.200;2023-04-09T11:54:22;7.93;;;6.90;;
417;SDS011;49;48.530;9.200;2023-04-09T11:56:49;8.60;;;6.70;;
417;SDS011;49;48.530;9.200;2023-04-09T11:59:20;9.53;;;7.33;;
417;SDS011;49;48.530;9.200;2023-04-09T12:02:05;8.53;;;6.93;;
417;SDS011;49;48.530;9.200;2023-04-09T12:04:47;9.27;;;7.30;;
417;SDS011;49;48.530;9.200;2023-04-09T12:07:16;9.03;;;7.50;;
417;SDS011;49;48.530;9.200;2023-04-09T12:09:47;10.30;;;7.60;;
417;SDS011;49;48.530;9.200;2023-04-09T12:12:17;42.43;;;21.00;;
417;SDS011;49;48.530;9.200;2023-04-09T12:14:44;14.03;;;7.57;;
417;SDS011;49;48.530;9.200;2023-04-09T12:17:12;10.63;;;8.10;;
417;SDS011;49;48.530;9.200;2023-04-09T12:19:40;7.80;;;6.93;;
417;SDS011;49;48.530;9.200;2023-04-09T12:22:07;10.20;;;8.10;;
417;SDS011;49;48.530;9.200;2023-04-09T12:24:38;6.60;;;6.17;;
417;SDS011;49;48.530;9.200;2023-04-09T12:27:05;9.93;;;7.60;;
417;SDS011;49;48.530;9.200;2023-04-09T12:29:32;8.27;;;6.93;;
417;SDS011;49;48.530;9.200;2023-04-09T12:32:00;8.03;;;6.10;;
417;SDS011;49;48.530;9.200;2023-04-09T12:34:27;6.77;;;5.87;;
417;SDS011;49;48.530;9.200;2023-04-09T12:36:54;8.50;;;6.07;;
417;SDS011;49;48.530;9.200;2023-04-09T12:39:20;8.00;;;6.30;;
417;SDS011;49;48.530;9.200;2023-04-09T12:41:49;9.00;;;6.67;;
417;SDS011;49;48.530;9.200;2023-04-09T12:44:18;8.67;;;6.80;;
417;SDS011;49;48.530;9.200;2023-04-09T12:46:45;7.60;;;6.27;;
417;SDS011;49;48.530;9.200;2023-04-09T12:49:12;7.97;;;6.43;;
417;SDS011;49;48.530;9.200;2023-04-09T12:51:39;7.73;;;6.30;;
417;SDS011;49;48.530;9.200;2023-04-09T12:54:08;8.03;;;6.40;;
417;SDS011;49;48.530;9.200;2023-04-09T12:56:35;7.80;;;6.20;;
417;SDS011;49;48.530;9.200;2023-04-09T12:59:03;7.37;;;6.17;;
417;SDS011;49;48.530;9.200;2023-04-09T13:01:30;9.80;;;6.03;;
417;SDS011;49;48.530;9.200;2023-04-09T13:03:58;8.27;;;6.80;;
417;SDS011;49;48.530;9.200;2023-04-09T13:06:25;9.20;;;6.67;;
417;SDS011;49;48.530;9.200;2023-04-09T13:08:53;8.30;;;6.63;;
417;SDS011;49;48.530;9.200;2023-04-09T13:11:20;8.53;;;6.63;;
417;SDS011;49;48.530;9.200;2023-04-09T13:13:47;8.87;;;6.37;;
417;SDS011;49;48.530;9.200;2023-04-09T13:16:15;8.00;;;5.97;;
417;SDS011;49;48.530;9.200;2023-04-09T13:18:42;8.83;;;6.97;;
417;SDS011;49;48.530;9.200;2023-04-09T13:21:09;6.93;;;6.07;;
417;SDS011;49;48.530;9.200;2023-04-09T13:23:39;7.77;;;6.23;;
417;SDS011;49;48.530;9.200;2023-04-09T13:26:06;12.40;;;5.67;;
417;SDS011;49;48.530;9.200;2023-04-09T13:28:33;7.17;;;6.00;;
417;SDS011;49;48.530;9.200;2023-04-09T13:31:00;8.67;;;7.13;;
417;SDS011;49;48.530;9.200;2023-04-09T13:33:29;7.90;;;6.70;;
417;SDS011;49;48.530;9.200;2023-04-09T13:35:58;7.80;;;6.30;;
417;SDS011;49;48.530;9.200;2023-04-09T13:38:26;7.70;;;6.07;;
417;SDS011;49;48.530;9.200;2023-04-09T13:40:54;8.67;;;6.60;;
417;SDS011;49;48.530;9.200;2023-04-09T13:43:24;9.17;;;5.93;;
417;SDS011;49;48.530;9.200;2023-04-09T13:45:58;7.50;;;6.00;;
417;SDS011;49;48.530;9.200;2023-04-09T13:48:30;7.13;;;6.00;;
417;SDS011;49;48.530;9.200;2023-04-09T13:50:57;10.90;;;6.67;;
417;SDS011;49;48.530;9.200;2023-04-09T13:53:24;9.70;;;6.70;;
417;SDS011;49;48.530;9.200;2023-04-09T13:55:51;7.60;;;5.97;;
417;SDS011;49;48.530;9.200;2023-04-09T13:58:18;7.43;;;5.70;;
417;SDS011;49;48.530;9.200;2023-04-09T14:00:47;6.17;;;4.93;;
417;SDS011;49;48.530;9.200;2023-04-09T14:03:15;8.10;;;5.80;;
417;SDS011;49;48.530;9.200;2023-04-09T14:05:43;7.80;;;5.57;;
417;SDS011;49;48.530;9.200;2023-04-09T14:08:12;7.93;;;6.30;;
417;SDS011;49;48.530;9.200;2023-04-09T14:10:39;6.47;;;5.50;;
417;SDS011;49;48.530;9.200;2023-04-09T14:13:06;8.27;;;6.27;;
417;SDS011;49;48.530;9.200;2023-04-09T14:15:35;8.53;;;6.70;;
417;SDS011;49;48.530;9.200;2023-04-09T14:18:03;7.43;;;6.10;;
417;SDS011;49;48.530;9.200;2023-04-09T14:20:33;7.50;;;6.13;;
417;SDS011;49;48.530;9.200;2023-04-09T14:23:01;7.13;;;5.80;;
417;SDS011;49;48.530;9.200;2023-04-09T14:25:28;7.73;;;6.10;;
417;SDS011;49;48.530;9.200;2023-04-09T14:27:55;9.13;;;6.07;;
417;SDS011;49;48.530;9.200;2023-04-09T14:30:23;9.23;;;6.93;;
417;SDS011;49;48.530;9.200;2023-04-09T14:32:50;7.73;;;5.93;;
417;SDS011;49;48.530;9.200;2023-04-09T14:35:17;7.80;;;6.60;;
417;SDS011;49;48.530;9.200;2023-04-09T14:37:44;8.20;;;6.63;;
417;SDS011;49;48.530;9.200;2023-04-09T14:40:14;7.93;;;6.33;;
417;SDS011;49;48.530;9.200;2023-04-09T14:42:41;8.10;;;6.90;;
417;SDS011;49;48.530;9.200;2023-04-09T14:45:09;9.53;;;7.03;;
417;SDS011;49;48.530;9.200;2023-04-09T14:47:36;8.13;;;7.10;;
417;SDS011;49;48.530;9.200;2023-04-09T14:50:04;25.57;;;6.80;;
417;SDS011;49;48.530;9.200;2023-04-09T14:52:31;8.10;;;7.07;;
417;SDS011;49;48.530;9.200;2023-04-09T14:54:59;8.87;;;6.90;;
417;SDS011;49;48.530;9.200;2023-04-09T14:57:27;7.87;;;6.33;;
417;SDS011;49;48.530;9.200;2023-04-09T14:59:55;7.93;;;6.70;;
417;SDS011;49;48.530;9.200;2023-04-09T15:02:22;9.00;;;6.77;;
417;SDS011;49;48.530;9.200;2023-04-09T15:04:51;9.87;;;7.10;;
417;SDS011;49;48.530;9.200;2023-04-09T15:07:18;8.13;;;6.63;;
417;SDS011;49;48.530;9.200;2023-04-09T15:09:45;9.93;;;6.90;;
417;SDS011;49;48.530;9.200;2023-04-09T15:12:12;9.07;;;7.10;;
417;SDS011;49;48.530;9.200;2023-04-09T15:14:42;8.30;;;6.87;;
417;SDS011;49;48.530;9.200;2023-04-09T15:17:12;9.77;;;7.60;;
417;SDS011;49;48.530;9.200;2023-04-09T15:19:41;19.23;;;7.73;;
417;SDS011;49;48.530;9.200;2023-04-09T15:22:08;11.57;;;7.60;;
417;SDS011;49;48.530;9.200;2023-04-09T15:24:35;8.67;;;7.20;;
417;SDS011;49;48.530;9.200;2023-04-09T15:27:02;9.13;;;7.60;;
417;SDS011;49;48.530;9.200;2023-04-09T15:29:29;7.90;;;6.43;;
417;SDS011;49;48.530;9.200;2023-04-09T15:32:00;8.57;;;6.43;;
417;SDS011;49;48.530;9.200;2023-04-09T15:34:28;12.63;;;8.83;;
417;SDS011;49;48.530;9.200;2023-04-09T15:36:55;48.77;;;18.40;;
417;SDS011;49;48.530;9.200;2023-04-09T15:39:22;58.47;;;20.97;;
417;SDS011;49;48.530;9.200;2023-04-09T15:41:52;84.67;;;31.00;;
417;SDS011;49;48.530;9.200;2023-04-09T15:44:20;10.53;;;8.10;;
417;SDS011;49;48.530;9.200;2023-04-09T15:46:48;11.00;;;8.30;;
417;SDS011;49;48.530;9.200;2023-04-09T15:49:17;8.63;;;7.50;;
417;SDS011;49;48.530;9.200;2023-04-09T15:51:44;12.90;;;7.97;;
417;SDS011;49;48.530;9.200;2023-04-09T15:54:11;9.27;;;7.63;;
417;SDS011;49;48.530;9.200;2023-04-09T15:56:38;8.77;;;7.10;;
417;SDS011;49;48.530;9.200;2023-04-09T15:59:06;12.83;;;7.47;;
417;SDS011;49;48.530;9.200;2023-04-09T16:01:33;10.73;;;8.17;;
417;SDS011;49;48.530;9.200;2023-04-09T16:04:00;9.07;;;6.87;;
417;SDS011;49;48.530;9.200;2023-04-09T16:06:29;14.90;;;6.13;;
417;SDS011;49;48.530;9.200;2023-04-09T16:08:56;9.23;;;6.67;;
417;SDS011;49;48.530;9.200;2023-04-09T16:11:23;7.57;;;6.17;;
417;SDS011;49;48.530;9.200;2023-04-09T16:13:51;8.23;;;6.37;;
417;SDS011;49;48.530;9.200;2023-04-09T16:16:18;7.67;;;6.13;;
417;SDS011;49;48.530;9.200;2023-04-09T16:18:45;7.17;;;5.83;;
417;SDS011;49;48.530;9.200;2023-04-09T16:21:15;8.00;;;6.40;;
417;SDS011;49;48.530;9.200;2023-04-09T16:23:43;7.60;;;5.87;;
417;SDS011;49;48.530;9.200;2023-04-09T16:26:10;7.47;;;6.40;;
417;SDS011;49;48.530;9.200;2023-04-09T16:28:37;7.70;;;5.87;;
417;SDS011;49;48.530;9.200;2023-04-09T16:31:05;8.50;;;6.60;;
417;SDS011;49;48.530;9.200;2023-04-09T16:33:37;7.73;;;6.00;;
417;SDS011;49;48.530;9.200;2023-04-09T16:36:07;8.13;;;6.87;;